createdAt,value
2022-08-11T00:02:25.182Z,101122.80
2022-08-11T00:05:03.580Z,101123.80
2022-08-11T00:07:43.271Z,101120.40
2022-08-11T00:10:22.073Z,101115.20
2022-08-11T00:13:00.133Z,101120.00
2022-08-11T00:15:45.593Z,101120.80
2022-08-11T00:18:22.966Z,101123.00
2022-08-11T00:21:02.985Z,101122.20
2022-08-11T00:23:40.511Z,101123.20
2022-08-11T00:26:15.291Z,101121.20
2022-08-11T00:28:48.675Z,101118.60
2022-08-11T00:31:30.040Z,101121.40
2022-08-11T00:34:06.076Z,101119.20
2022-08-11T00:36:51.288Z,101118.80
2022-08-11T00:39:28.689Z,101115.20
2022-08-11T00:45:36.368Z,101109.00
2022-08-11T00:48:27.816Z,101109.20
2022-08-11T00:51:24.837Z,101109.40
2022-08-11T00:54:33.049Z,101110.80
2022-08-11T00:57:39.151Z,101109.60
2022-08-11T01:00:20.174Z,101107.80
2022-08-11T01:03:19.191Z,101109.20
2022-08-11T01:06:59.053Z,101110.60
2022-08-11T01:10:05.072Z,101112.00
2022-08-11T01:13:08.420Z,101107.80
2022-08-11T01:16:44.015Z,101106.80
2022-08-11T01:20:44.918Z,101106.00
2022-08-11T01:23:54.399Z,101101.00
2022-08-11T01:27:22.126Z,101104.40
2022-08-11T01:30:30.713Z,101105.80
2022-08-11T01:33:59.624Z,101105.80
2022-08-11T01:37:07.771Z,101112.20
2022-08-11T01:40:14.453Z,101106.40
2022-08-11T01:43:55.626Z,101104.60
2022-08-11T01:46:34.918Z,101107.60
2022-08-11T01:50:06.392Z,101103.20
2022-08-11T01:52:30.946Z,101101.40
2022-08-11T01:55:24.154Z,101100.40
2022-08-11T01:58:14.126Z,101102.40
2022-08-11T02:01:03.811Z,101106.00
2022-08-11T02:03:51.281Z,101104.60
2022-08-11T02:06:54.426Z,101095.60
2022-08-11T02:09:51.911Z,101099.60
2022-08-11T02:12:52.530Z,101105.60
2022-08-11T02:15:36.714Z,101102.40
2022-08-11T02:18:22.986Z,101095.80
2022-08-11T02:21:25.862Z,101097.20
2022-08-11T02:24:09.519Z,101093.00
2022-08-11T02:26:53.908Z,101093.40
2022-08-11T02:29:39.164Z,101093.60
2022-08-11T02:32:39.372Z,101100.00
2022-08-11T02:35:26.693Z,101098.00
2022-08-11T02:38:17.858Z,101100.80
2022-08-11T02:41:02.267Z,101102.40
2022-08-11T02:44:00.392Z,101099.40
2022-08-11T02:46:52.585Z,101097.00
2022-08-11T02:50:09.900Z,101095.20
2022-08-11T02:52:59.158Z,101097.60
2022-08-11T02:55:57.331Z,101099.60
2022-08-11T02:59:19.843Z,101096.00
2022-08-11T03:02:05.675Z,101094.80
2022-08-11T03:04:56.896Z,101092.60
2022-08-11T03:07:44.196Z,101093.80
2022-08-11T03:10:26.889Z,101101.00
2022-08-11T03:13:39.218Z,101104.80
2022-08-11T03:16:48.456Z,101104.00
2022-08-11T03:19:31.541Z,101103.20
2022-08-11T03:22:09.599Z,101101.40
2022-08-11T03:25:03.195Z,101106.80
2022-08-11T03:27:53.564Z,101107.00
2022-08-11T03:30:40.966Z,101099.80
2022-08-11T03:33:47.459Z,101105.80
2022-08-11T03:37:17.949Z,101104.40
2022-08-11T03:40:09.098Z,101108.60
2022-08-11T03:42:58.996Z,101107.80
2022-08-11T03:45:57.896Z,101099.20
2022-08-11T03:48:42.961Z,101104.40
2022-08-11T03:51:28.438Z,101102.00
2022-08-11T03:54:51.432Z,101096.00
2022-08-11T03:58:08.536Z,101098.20
2022-08-11T04:01:17.307Z,101098.60
2022-08-11T04:04:14.648Z,101096.80
2022-08-11T04:07:53.510Z,101099.80
2022-08-11T04:11:02.540Z,101095.40
2022-08-11T04:14:30.060Z,101100.20
2022-08-11T04:17:44.685Z,101090.60
2022-08-11T04:20:50.627Z,101097.60
2022-08-11T04:24:35.360Z,101098.40
2022-08-11T04:27:37.085Z,101098.40
2022-08-11T04:30:19.046Z,101100.20
2022-08-11T04:33:37.667Z,101101.60
2022-08-11T04:37:05.721Z,101100.20
2022-08-11T04:40:00.813Z,101103.80
2022-08-11T04:43:31.152Z,101104.60
2022-08-11T04:46:29.845Z,101106.80
2022-08-11T04:49:57.726Z,101109.40
2022-08-11T04:53:37.452Z,101106.60
2022-08-11T04:56:39.497Z,101107.20
2022-08-11T05:00:20.697Z,101107.20
2022-08-11T05:03:42.067Z,101106.00
2022-08-11T05:07:01.776Z,101103.80
2022-08-11T05:09:59.408Z,101101.60
2022-08-11T05:12:47.618Z,101099.80
2022-08-11T05:15:52.453Z,101104.60
2022-08-11T05:18:47.634Z,101105.20
2022-08-11T05:21:45.055Z,101111.20
2022-08-11T05:24:45.171Z,101116.80
2022-08-11T05:27:37.964Z,101119.40
2022-08-11T05:30:34.357Z,101121.40
2022-08-11T05:33:37.883Z,101125.00
2022-08-11T05:36:25.883Z,101126.00
2022-08-11T05:39:33.723Z,101132.20
2022-08-11T05:42:30.653Z,101134.40
2022-08-11T05:45:52.760Z,101131.40
2022-08-11T05:48:51.545Z,101139.00
2022-08-11T05:51:55.407Z,101135.40
2022-08-11T05:54:49.621Z,101144.40
2022-08-11T05:57:48.335Z,101145.20
2022-08-11T06:00:24.715Z,101139.20
2022-08-11T06:03:07.505Z,101139.60
2022-08-11T06:05:44.330Z,101142.80
2022-08-11T06:08:19.749Z,101145.00
2022-08-11T06:10:53.294Z,101153.60
2022-08-11T06:13:28.864Z,101151.60
2022-08-11T06:16:07.218Z,101150.80
2022-08-11T06:18:43.783Z,101154.80
2022-08-11T06:21:19.643Z,101155.60
2022-08-11T06:23:56.643Z,101155.80
2022-08-11T06:26:30.543Z,101157.60
2022-08-11T06:29:05.049Z,101153.00
2022-08-11T06:31:39.497Z,101156.80
2022-08-11T06:34:30.257Z,101153.00
2022-08-11T06:37:26.252Z,101154.40
2022-08-11T06:40:13.029Z,101154.60
2022-08-11T06:42:56.336Z,101149.20
2022-08-11T06:45:36.472Z,101147.00
2022-08-11T06:48:19.824Z,101144.40
2022-08-11T06:51:14.683Z,101139.00
2022-08-11T06:54:03.859Z,101139.60
2022-08-11T06:57:28.977Z,101136.60
2022-08-11T07:00:28.986Z,101135.60
2022-08-11T07:03:09.412Z,101134.60
2022-08-11T07:05:53.083Z,101132.00
2022-08-11T07:09:35.510Z,101132.00
2022-08-11T07:12:56.409Z,101132.60
2022-08-11T07:16:11.244Z,101126.40
2022-08-11T07:18:59.385Z,101124.00
2022-08-11T07:22:03.157Z,101126.00
2022-08-11T07:25:03.586Z,101124.60
2022-08-11T07:28:03.453Z,101128.80
2022-08-11T07:30:43.500Z,101124.20
2022-08-11T07:34:08.076Z,101121.80
2022-08-11T07:36:28.254Z,101123.00
2022-08-11T07:39:03.886Z,101122.60
2022-08-11T07:41:39.137Z,101124.00
2022-08-11T07:44:15.127Z,101120.60
2022-08-11T07:47:11.108Z,101123.00
2022-08-11T07:50:07.454Z,101124.80
2022-08-11T07:52:41.666Z,101125.00
2022-08-11T07:55:49.136Z,101122.80
2022-08-11T07:58:45.075Z,101120.60
2022-08-11T08:01:46.725Z,101122.80
2022-08-11T08:04:45.406Z,101120.20
2022-08-11T08:07:42.591Z,101123.00
2022-08-11T08:10:36.280Z,101120.80
2022-08-11T08:13:31.022Z,101119.80
2022-08-11T08:16:22.362Z,101120.00
2022-08-11T08:19:00.929Z,101118.60
2022-08-11T08:21:36.954Z,101115.20
2022-08-11T08:24:11.577Z,101115.00
2022-08-11T08:27:03.250Z,101110.80
2022-08-11T08:30:07.617Z,101111.60
2022-08-11T08:32:44.871Z,101100.20
2022-08-11T08:35:19.760Z,101095.00
2022-08-11T08:37:56.308Z,101105.40
2022-08-11T08:40:30.074Z,101099.80
2022-08-11T08:43:10.963Z,101095.80
2022-08-11T08:45:45.966Z,101092.80
2022-08-11T08:48:24.980Z,101091.40
2022-08-11T08:52:00.836Z,101095.60
2022-08-11T08:54:37.155Z,101090.00
2022-08-11T08:57:14.109Z,101086.80
2022-08-11T08:59:51.519Z,101088.40
2022-08-11T09:02:34.647Z,101083.20
2022-08-11T09:05:10.999Z,101079.00
2022-08-11T09:07:47.532Z,101083.00
2022-08-11T09:10:23.792Z,101083.80
2022-08-11T09:12:58.495Z,101080.40
2022-08-11T09:15:32.932Z,101081.00
2022-08-11T09:18:09.479Z,101077.80
2022-08-11T09:20:43.523Z,101079.80
2022-08-11T09:26:47.611Z,101078.80
2022-08-11T09:29:21.869Z,101077.40
2022-08-11T09:31:57.737Z,101077.80
2022-08-11T09:34:36.715Z,101079.20
2022-08-11T09:37:54.287Z,101078.40
2022-08-11T09:40:33.709Z,101080.60
2022-08-11T09:43:30.888Z,101080.60
2022-08-11T09:46:05.283Z,101084.40
2022-08-11T09:48:44.450Z,101078.20
2022-08-11T09:51:19.816Z,101083.60
2022-08-11T09:54:03.032Z,101080.40
2022-08-11T09:56:55.478Z,101078.80
2022-08-11T09:59:28.931Z,101078.20
2022-08-11T10:02:05.770Z,101071.00
2022-08-11T10:04:45.369Z,101074.00
2022-08-11T10:07:22.062Z,101071.80
2022-08-11T10:10:02.324Z,101069.60
2022-08-11T10:12:42.584Z,101069.60
2022-08-11T10:15:34.914Z,101059.80
2022-08-11T10:18:29.508Z,101048.40
2022-08-11T10:21:08.410Z,101050.00
2022-08-11T10:24:05.550Z,101050.20
2022-08-11T10:26:55.539Z,101050.20
2022-08-11T10:29:52.353Z,101040.40
2022-08-11T10:32:58.768Z,101040.00
2022-08-11T10:35:36.384Z,101038.20
2022-08-11T10:38:10.187Z,101035.20
2022-08-11T10:41:10.688Z,101045.80
2022-08-11T10:44:03.344Z,101046.40
2022-08-11T10:46:56.916Z,101040.80
2022-08-11T10:49:31.703Z,101034.40
2022-08-11T10:52:23.809Z,101029.00
2022-08-11T10:55:15.391Z,101026.00
2022-08-11T10:58:07.863Z,101032.20
2022-08-11T11:00:41.351Z,101029.20
2022-08-11T11:03:22.884Z,101022.80
2022-08-11T11:06:27.362Z,101028.60
2022-08-11T11:09:06.092Z,101029.20
2022-08-11T11:12:05.242Z,101031.20
2022-08-11T11:15:01.763Z,101028.40
2022-08-11T11:17:57.808Z,101025.40
2022-08-11T11:20:45.001Z,101017.00
2022-08-11T11:23:28.019Z,101011.00
2022-08-11T11:26:31.916Z,101010.60
2022-08-11T11:29:38.563Z,101011.00
2022-08-11T11:32:38.652Z,101014.60
2022-08-11T11:35:48.089Z,101009.60
2022-08-11T11:38:22.678Z,100997.60
2022-08-11T11:41:16.584Z,101000.80
2022-08-11T11:43:50.773Z,100997.40
2022-08-11T11:46:29.947Z,100991.00
2022-08-11T11:49:15.882Z,100995.40
2022-08-11T11:51:53.490Z,100985.00
2022-08-11T11:54:31.100Z,100980.40
2022-08-11T11:57:20.968Z,100980.20
2022-08-11T12:00:12.654Z,100978.20
2022-08-11T12:02:46.758Z,100980.60
2022-08-11T12:05:21.411Z,100980.40
2022-08-11T12:08:16.358Z,100975.60
2022-08-11T12:11:15.094Z,100979.60
2022-08-11T12:13:51.455Z,100937.80
2022-08-11T12:16:34.897Z,100930.20
2022-08-11T12:19:12.777Z,100967.00
2022-08-11T12:22:18.917Z,100963.80
2022-08-11T12:25:10.737Z,100936.20
2022-08-11T12:27:44.774Z,100948.20
2022-08-11T12:30:20.134Z,100963.40
2022-08-11T12:32:54.030Z,100967.40
2022-08-11T12:35:27.585Z,100960.60
2022-08-11T12:38:10.703Z,100958.40
2022-08-11T12:41:16.307Z,100957.60
2022-08-11T12:44:09.088Z,100907.80
2022-08-11T12:46:47.050Z,100902.80
2022-08-11T12:49:45.475Z,100901.80
2022-08-11T12:52:26.495Z,100904.80
2022-08-11T12:55:12.996Z,100900.20
2022-08-11T12:58:07.603Z,100899.80
2022-08-11T13:00:58.530Z,100899.80
2022-08-11T13:03:52.461Z,100891.40
2022-08-11T13:06:30.752Z,100885.20
2022-08-11T13:09:05.003Z,100887.80
2022-08-11T13:11:57.662Z,100904.80
2022-08-11T13:14:33.344Z,100894.80
2022-08-11T13:17:44.102Z,100893.40
2022-08-11T13:20:21.269Z,100894.40
2022-08-11T13:22:58.677Z,100895.20
2022-08-11T13:25:35.175Z,100893.60
2022-08-11T13:28:10.184Z,100893.60
2022-08-11T13:31:02.063Z,100887.20
2022-08-11T13:33:37.408Z,100886.40
2022-08-11T13:36:13.433Z,100887.60
2022-08-11T13:38:50.033Z,100879.20
2022-08-11T13:41:39.386Z,100885.20
2022-08-11T13:44:21.617Z,100879.40
2022-08-11T13:47:01.573Z,100873.60
2022-08-11T13:49:40.341Z,100881.00
2022-08-11T13:52:17.616Z,100878.80
2022-08-11T13:54:53.251Z,100871.60
2022-08-11T13:58:07.684Z,100869.40
2022-08-11T14:00:26.933Z,100863.40
2022-08-11T14:03:02.705Z,100865.60
2022-08-11T14:05:46.769Z,100860.40
2022-08-11T14:08:33.496Z,100858.40
2022-08-11T14:12:21.108Z,100862.40
2022-08-11T14:14:28.642Z,100860.60
2022-08-11T14:17:07.556Z,100856.40
2022-08-11T14:19:45.601Z,100851.40
2022-08-11T14:22:22.071Z,100844.40
2022-08-11T14:24:56.743Z,100843.20
2022-08-11T14:28:32.557Z,100840.00
2022-08-11T14:30:45.884Z,100834.00
2022-08-11T14:33:20.590Z,100836.20
2022-08-11T14:35:54.821Z,100832.40
2022-08-11T14:38:28.948Z,100832.00
2022-08-11T14:41:20.212Z,100856.40
2022-08-11T14:44:14.721Z,100855.00
2022-08-11T14:47:23.418Z,100839.20
2022-08-11T14:50:09.953Z,100847.20
2022-08-11T14:52:55.163Z,100866.40
2022-08-11T14:55:48.097Z,100849.20
2022-08-11T14:58:25.744Z,100847.00
2022-08-11T15:01:01.747Z,100851.60
2022-08-11T15:03:36.702Z,100846.80
2022-08-11T15:06:11.203Z,100844.20
2022-08-11T15:08:57.058Z,100845.00
2022-08-11T15:11:51.883Z,100844.80
2022-08-11T15:14:41.420Z,100842.60
2022-08-11T15:17:16.772Z,100831.00
2022-08-11T15:20:12.074Z,100828.40
2022-08-11T15:23:02.903Z,100837.40
2022-08-11T15:25:38.367Z,100841.60
2022-08-11T15:28:32.349Z,100849.00
2022-08-11T15:31:37.521Z,100857.20
2022-08-11T15:34:32.560Z,100843.00
2022-08-11T15:37:30.991Z,100849.20
2022-08-11T15:40:43.454Z,100863.00
2022-08-11T15:43:45.945Z,100858.80
2022-08-11T15:46:21.882Z,100842.80
2022-08-11T15:49:03.702Z,100838.60
2022-08-11T15:51:44.205Z,100844.00
2022-08-11T15:54:22.185Z,100837.40
2022-08-11T15:57:01.813Z,100836.60
2022-08-11T15:59:58.020Z,100839.40
2022-08-11T16:02:49.769Z,100839.40
2022-08-11T16:05:46.368Z,100832.60
2022-08-11T16:08:29.517Z,100839.20
2022-08-11T16:11:09.152Z,100839.40
2022-08-11T16:14:01.622Z,100841.60
2022-08-11T16:16:39.173Z,100837.80
2022-08-11T16:19:15.281Z,100834.40
2022-08-11T16:21:51.796Z,100837.60
2022-08-11T16:27:06.118Z,100830.60
2022-08-11T16:27:24.431Z,100834.20
2022-08-11T16:30:00.198Z,100837.60
2022-08-11T16:32:38.018Z,100836.40
2022-08-11T16:35:34.545Z,100846.00
2022-08-11T16:38:27.718Z,100838.80
2022-08-11T16:41:10.936Z,100846.60
2022-08-11T16:44:06.233Z,100846.00
2022-08-11T16:46:54.935Z,100855.60
2022-08-11T16:49:34.949Z,100857.00
2022-08-11T16:52:12.249Z,100857.60
2022-08-11T16:54:47.746Z,100856.80
2022-08-11T16:57:57.691Z,100853.40
2022-08-11T17:00:33.318Z,100851.40
2022-08-11T17:03:25.621Z,100848.40
2022-08-11T17:06:17.666Z,100864.60
2022-08-11T17:09:12.200Z,100870.60
2022-08-11T17:12:11.702Z,100872.20
2022-08-11T17:14:53.094Z,100876.80
2022-08-11T17:17:34.969Z,100880.00
2022-08-11T17:20:42.822Z,100878.20
2022-08-11T17:23:28.989Z,100887.60
2022-08-11T17:26:04.713Z,100885.00
2022-08-11T17:28:40.866Z,100888.40
2022-08-11T17:31:34.651Z,100887.40
2022-08-11T17:34:27.547Z,100879.60
2022-08-11T17:37:02.196Z,100880.40
2022-08-11T17:39:36.978Z,100878.80
2022-08-11T17:42:29.414Z,100880.20
2022-08-11T17:45:22.815Z,100881.60
2022-08-11T17:48:14.927Z,100877.40
2022-08-11T17:50:50.293Z,100881.20
2022-08-11T17:54:15.267Z,100877.00
2022-08-11T17:57:20.419Z,100879.00
2022-08-11T17:59:57.740Z,100876.60
2022-08-11T18:02:54.290Z,100871.40
2022-08-11T18:05:33.809Z,100876.60
2022-08-11T18:08:31.099Z,100881.40
2022-08-11T18:12:10.235Z,100876.00
2022-08-11T18:14:35.324Z,100879.00
2022-08-11T18:17:26.582Z,100879.20
2022-08-11T18:20:17.335Z,100887.00
2022-08-11T18:23:11.458Z,100881.20
2022-08-11T18:26:07.865Z,100887.00
2022-08-11T18:29:09.253Z,100884.20
2022-08-11T18:32:08.589Z,100886.40
2022-08-11T18:35:03.724Z,100896.00
2022-08-11T18:38:01.934Z,100894.40
2022-08-11T18:40:55.135Z,100896.00
2022-08-11T18:43:50.684Z,100901.80
2022-08-11T18:46:43.626Z,100901.40
2022-08-11T18:50:01.551Z,100902.20
2022-08-11T18:52:57.508Z,100904.00
2022-08-11T18:55:49.991Z,100903.40
2022-08-11T18:58:49.510Z,100902.20
2022-08-11T19:01:45.982Z,100900.40
2022-08-11T19:04:38.527Z,100901.00
2022-08-11T19:07:32.894Z,100899.40
2022-08-11T19:10:25.589Z,100901.80
2022-08-11T19:13:18.897Z,100900.80
2022-08-11T19:16:12.158Z,100900.80
2022-08-11T19:19:05.930Z,100903.80
2022-08-11T19:21:58.911Z,100905.00
2022-08-11T19:24:49.362Z,100911.00
2022-08-11T19:27:42.329Z,100908.80
2022-08-11T19:30:32.702Z,100910.00
2022-08-11T19:33:57.345Z,100911.60
2022-08-11T19:36:37.258Z,100914.80
2022-08-11T19:39:29.444Z,100912.40
2022-08-11T19:42:22.215Z,100912.20
2022-08-11T19:45:13.463Z,100916.60
2022-08-11T19:48:30.128Z,100916.20
2022-08-11T19:51:17.765Z,100915.00
2022-08-11T19:54:08.461Z,100911.60
2022-08-11T19:57:00.370Z,100912.00
2022-08-11T19:59:52.586Z,100913.40
2022-08-11T20:02:43.808Z,100915.00
2022-08-11T20:05:34.694Z,100920.40
2022-08-11T20:08:27.198Z,100919.80
2022-08-11T20:11:19.173Z,100918.20
2022-08-11T20:14:14.001Z,100922.80
2022-08-11T20:17:06.746Z,100919.00
2022-08-11T20:22:57.130Z,100916.80
2022-08-11T20:25:51.318Z,100915.40
2022-08-11T20:28:43.334Z,100910.20
2022-08-11T20:31:35.091Z,100913.40
2022-08-11T20:34:28.324Z,100919.80
2022-08-11T20:37:21.571Z,100922.40
2022-08-11T20:40:12.278Z,100926.40
2022-08-11T20:43:04.207Z,100921.20
2022-08-11T20:45:57.350Z,100925.60
2022-08-11T20:48:51.564Z,100922.00
2022-08-11T20:51:43.520Z,100930.60
2022-08-11T20:54:38.241Z,100932.60
2022-08-11T20:57:59.134Z,100931.20
2022-08-11T21:00:48.571Z,100927.80
2022-08-11T21:03:44.898Z,100925.80
2022-08-11T21:06:47.762Z,100927.80
2022-08-11T21:10:01.069Z,100926.00
2022-08-11T21:12:55.535Z,100921.20
2022-08-11T21:16:01.595Z,100918.00
2022-08-11T21:18:55.692Z,100917.80
2022-08-11T21:21:49.842Z,100919.00
2022-08-11T21:24:48.575Z,100918.40
2022-08-11T21:27:42.454Z,100912.20
2022-08-11T21:30:34.346Z,100923.20
2022-08-11T21:33:28.122Z,100925.40
2022-08-11T21:36:20.051Z,100926.60
2022-08-11T21:39:12.544Z,100922.60
2022-08-11T21:42:04.446Z,100921.20
2022-08-11T21:44:56.463Z,100923.20
2022-08-11T21:47:49.489Z,100922.00
2022-08-11T21:50:52.169Z,100926.40
2022-08-11T21:53:44.935Z,100929.40
2022-08-11T21:56:37.271Z,100922.80
2022-08-11T21:59:29.269Z,100931.20
2022-08-11T22:02:20.683Z,100926.40
2022-08-11T22:05:16.197Z,100926.20
2022-08-11T22:08:07.238Z,100922.00
2022-08-11T22:10:58.338Z,100912.00
2022-08-11T22:14:06.406Z,100915.80
2022-08-11T22:16:58.692Z,100915.00
2022-08-11T22:19:50.604Z,100912.60
2022-08-11T22:22:49.100Z,100920.20
2022-08-11T22:25:54.326Z,100919.20
2022-08-11T22:28:50.819Z,100918.60
2022-08-11T22:31:42.828Z,100918.40
2022-08-11T22:34:34.699Z,100917.00
2022-08-11T22:37:45.269Z,100919.80
2022-08-11T22:40:36.153Z,100919.00
2022-08-11T22:43:27.465Z,100920.20
2022-08-11T22:46:18.416Z,100918.40
2022-08-11T22:49:09.886Z,100913.80
2022-08-11T22:52:03.241Z,100916.00
2022-08-11T22:54:55.727Z,100908.80
2022-08-11T22:58:00.456Z,100905.60
2022-08-11T23:00:52.168Z,100904.20
2022-08-11T23:03:43.858Z,100906.60
2022-08-11T23:06:36.044Z,100908.00
2022-08-11T23:09:29.749Z,100904.00
2022-08-11T23:12:21.207Z,100909.60
2022-08-11T23:15:12.985Z,100912.80
2022-08-11T23:18:04.698Z,100914.60
2022-08-11T23:20:58.815Z,100919.40
2022-08-11T23:23:51.423Z,100921.00
2022-08-11T23:26:46.596Z,100916.60
2022-08-11T23:29:38.293Z,100911.20
2022-08-11T23:32:29.148Z,100906.40
2022-08-11T23:35:40.228Z,100906.60
2022-08-11T23:38:33.595Z,100907.20
2022-08-11T23:41:25.095Z,100906.60
2022-08-11T23:44:16.866Z,100900.60
2022-08-11T23:47:10.675Z,100899.40
2022-08-11T23:50:03.157Z,100904.40
2022-08-11T23:52:54.791Z,100904.80
2022-08-11T23:55:45.715Z,100900.60
2022-08-11T23:58:36.646Z,100895.80
